Time,TemperatureF,DewpointF,PressureIn,WindDirection,WindDirectionDegrees,WindSpeedMPH,WindSpeedGustMPH,Humidity,HourlyPrecipIn,Conditions,Clouds,dailyrainin,SoftwareType,DateUTC
2013-09-20 00:01:00,66.2,57.3,30.10,NE,42,0.0,4.0,73,0.00,,---,0.00,VWS V13.00,2013-09-20 04:01:00,
2013-09-20 00:02:00,66.2,57.3,30.10,NE,42,0.0,0.0,73,0.00,,---,0.00,VWS V13.00,2013-09-20 04:02:00,
2013-09-20 00:07:00,66.3,57.4,30.10,NE,42,2.0,2.0,73,0.00,,---,0.00,VWS V13.00,2013-09-20 04:07:00,
2013-09-20 00:12:00,66.3,57.4,30.10,NNE,30,0.0,4.0,73,0.00,,---,0.00,VWS V13.00,2013-09-20 04:12:00,
2013-09-20 00:18:00,66.2,57.3,30.10,NE,52,1.0,4.0,73,0.00,,---,0.00,VWS V13.00,2013-09-20 04:18:00,
2013-09-20 00:23:00,66.2,57.7,30.10,NE,38,0.0,4.0,74,0.00,,---,0.00,VWS V13.00,2013-09-20 04:23:00,
2013-09-20 00:28:00,66.2,57.7,30.09,NE,40,2.0,4.0,74,0.00,,---,0.00,VWS V13.00,2013-09-20 04:28:00,
2013-09-20 00:33:00,66.2,57.7,30.09,NE,39,1.0,2.0,74,0.00,,---,0.00,VWS V13.00,2013-09-20 04:33:00,
2013-09-20 00:38:00,66.1,57.6,30.09,NNE,13,2.0,3.0,74,0.00,,---,0.00,VWS V13.00,2013-09-20 04:38:00,
2013-09-20 00:43:00,65.9,57.4,30.09,NNE,22,0.0,4.0,74,0.00,,---,0.00,VWS V13.00,2013-09-20 04:43:00,
2013-09-20 00:48:00,65.8,57.3,30.09,NNE,15,2.0,5.0,74,0.00,,---,0.00,VWS V13.00,2013-09-20 04:48:00,
2013-09-20 00:53:00,65.7,57.2,30.09,NNE,29,0.0,5.0,74,0.00,,---,0.00,VWS V13.00,2013-09-20 04:53:00,
2013-09-20 00:58:00,65.7,57.2,30.09,NNE,19,4.0,5.0,74,0.00,,---,0.00,VWS V13.00,2013-09-20 04:58:00,
2013-09-20 01:03:00,65.7,57.2,30.09,NNE,20,0.0,2.0,74,0.00,,---,0.00,VWS V13.00,2013-09-20 05:03:00,
2013-09-20 01:08:00,65.6,57.1,30.09,NNE,21,1.0,3.0,74,0.00,,---,0.00,VWS V13.00,2013-09-20 05:08:00,
2013-09-20 01:13:00,65.5,57.0,30.09,NNE,15,2.0,4.0,74,0.00,,---,0.00,VWS V13.00,2013-09-20 05:13:00,
2013-09-20 01:18:00,65.6,57.5,30.09,NNE,17,2.0,4.0,75,0.00,,---,0.00,VWS V13.00,2013-09-20 05:18:00,
2013-09-20 01:23:00,65.6,57.5,30.09,North,10,1.0,5.0,75,0.00,,---,0.00,VWS V13.00,2013-09-20 05:23:00,
2013-09-20 01:28:00,65.4,57.3,30.10,North,10,0.0,5.0,75,0.00,,---,0.00,VWS V13.00,2013-09-20 05:28:00,
2013-09-20 01:33:00,65.4,57.3,30.09,North,10,0.0,3.0,75,0.00,,---,0.00,VWS V13.00,2013-09-20 05:33:00,
2013-09-20 01:38:00,65.4,57.3,30.09,North,11,2.0,5.0,75,0.00,,---,0.00,VWS V13.00,2013-09-20 05:38:00,
2013-09-20 01:43:00,65.3,57.2,30.09,NNE,21,1.0,5.0,75,0.00,,---,0.00,VWS V13.00,2013-09-20 05:43:00,
2013-09-20 01:48:00,65.4,57.3,30.10,NNE,16,0.0,6.0,75,0.00,,---,0.00,VWS V13.00,2013-09-20 05:48:00,
2013-09-20 01:53:00,65.5,57.4,30.10,NNE,30,2.0,6.0,75,0.00,,---,0.00,VWS V13.00,2013-09-20 05:53:00,
2013-09-20 01:58:00,65.6,57.5,30.10,NE,47,0.0,6.0,75,0.00,,---,0.00,VWS V13.00,2013-09-20 05:58:00,
2013-09-20 02:03:00,65.8,57.7,30.09,North,360,0.0,4.0,75,0.00,,---,0.00,VWS V13.00,2013-09-20 06:03:00,
2013-09-20 02:08:00,65.8,57.7,30.09,ENE,62,0.0,4.0,75,0.00,,---,0.00,VWS V13.00,2013-09-20 06:08:00,
2013-09-20 02:13:00,66.0,57.9,30.09,East,90,2.0,5.0,75,0.00,,---,0.00,VWS V13.00,2013-09-20 06:13:00,
2013-09-20 02:18:00,66.2,58.0,30.09,NE,38,1.0,5.0,75,0.00,,---,0.00,VWS V13.00,2013-09-20 06:18:00,
2013-09-20 02:23:00,66.3,58.5,30.10,NE,48,2.0,5.0,76,0.00,,---,0.00,VWS V13.00,2013-09-20 06:23:00,
2013-09-20 02:28:00,66.5,58.7,30.09,NNE,24,1.0,6.0,76,0.00,,---,0.00,VWS V13.00,2013-09-20 06:28:00,
2013-09-20 02:33:00,66.7,58.9,30.09,NE,47,0.0,2.0,76,0.00,,---,0.00,VWS V13.00,2013-09-20 06:33:00,
2013-09-20 02:38:00,66.8,59.0,30.09,NNE,27,0.0,5.0,76,0.00,,---,0.00,VWS V13.00,2013-09-20 06:38:00,
2013-09-20 02:43:00,66.8,59.0,30.10,NNE,28,3.0,5.0,76,0.00,,---,0.00,VWS V13.00,2013-09-20 06:43:00,
2013-09-20 02:48:00,66.8,59.0,30.10,NNE,12,0.0,5.0,76,0.00,,---,0.00,VWS V13.00,2013-09-20 06:48:00,
2013-09-20 02:53:00,66.9,59.1,30.10,NE,53,2.0,5.0,76,0.00,,---,0.00,VWS V13.00,2013-09-20 06:53:00,
2013-09-20 02:58:00,67.1,59.3,30.10,NE,51,0.0,5.0,76,0.00,,---,0.00,VWS V13.00,2013-09-20 06:58:00,
2013-09-20 03:03:00,67.2,59.4,30.10,NE,36,2.0,4.0,76,0.00,,---,0.00,VWS V13.00,2013-09-20 07:03:00,
2013-09-20 03:08:00,67.3,59.5,30.10,NNE,17,0.0,5.0,76,0.00,,---,0.00,VWS V13.00,2013-09-20 07:08:00,
2013-09-20 03:13:00,67.3,59.5,30.10,NE,34,1.0,5.0,76,0.00,,---,0.00,VWS V13.00,2013-09-20 07:13:00,
2013-09-20 03:18:00,67.5,59.7,30.10,NE,43,2.0,7.0,76,0.00,,---,0.00,VWS V13.00,2013-09-20 07:18:00,
2013-09-20 03:23:00,67.6,59.8,30.10,NNE,12,0.0,7.0,76,0.00,,---,0.00,VWS V13.00,2013-09-20 07:23:00,
2013-09-20 03:28:00,67.6,59.8,30.09,NNE,32,0.0,7.0,76,0.00,,---,0.00,VWS V13.00,2013-09-20 07:28:00,
2013-09-20 03:33:00,67.7,59.9,30.09,NE,39,1.0,4.0,76,0.00,,---,0.00,VWS V13.00,2013-09-20 07:33:00,
2013-09-20 03:38:00,67.8,60.0,30.09,NE,36,0.0,4.0,76,0.00,,---,0.00,VWS V13.00,2013-09-20 07:38:00,
2013-09-20 03:43:00,67.9,60.1,30.09,NE,43,2.0,4.0,76,0.00,,---,0.00,VWS V13.00,2013-09-20 07:43:00,
2013-09-20 03:48:00,68.0,60.2,30.09,NE,38,2.0,4.0,76,0.00,,---,0.00,VWS V13.00,2013-09-20 07:48:00,
2013-09-20 03:53:00,68.0,60.2,30.09,NNE,19,2.0,5.0,76,0.00,,---,0.00,VWS V13.00,2013-09-20 07:53:00,
2013-09-20 03:58:00,68.1,60.3,30.09,ENE,62,0.0,5.0,76,0.00,,---,0.00,VWS V13.00,2013-09-20 07:58:00,
2013-09-20 04:03:00,68.2,60.3,30.09,NE,42,3.0,5.0,76,0.00,,---,0.00,VWS V13.00,2013-09-20 08:03:00,
2013-09-20 04:08:00,68.2,60.7,30.08,NE,55,4.0,5.0,77,0.00,,---,0.00,VWS V13.00,2013-09-20 08:08:00,
2013-09-20 04:13:00,68.2,60.7,30.08,NE,38,3.0,5.0,77,0.00,,---,0.00,VWS V13.00,2013-09-20 08:13:00,
2013-09-20 04:18:00,68.1,60.6,30.08,NNE,21,1.0,5.0,77,0.00,,---,0.00,VWS V13.00,2013-09-20 08:18:00,
2013-09-20 04:23:00,68.0,60.5,30.08,North,11,0.0,5.0,77,0.00,,---,0.00,VWS V13.00,2013-09-20 08:23:00,
2013-09-20 04:28:00,67.8,60.3,30.08,North,9,0.0,5.0,77,0.00,,---,0.00,VWS V13.00,2013-09-20 08:28:00,
2013-09-20 04:33:00,67.5,60.0,30.08,NNE,16,2.0,3.0,77,0.00,,---,0.00,VWS V13.00,2013-09-20 08:33:00,
2013-09-20 04:38:00,67.3,59.8,30.08,NNE,17,0.0,3.0,77,0.00,,---,0.00,VWS V13.00,2013-09-20 08:38:00,
2013-09-20 04:43:00,67.1,59.7,30.09,NE,36,0.0,5.0,77,0.00,,---,0.00,VWS V13.00,2013-09-20 08:43:00,
2013-09-20 04:48:00,67.0,59.6,30.08,NE,36,0.0,5.0,77,0.00,,---,0.00,VWS V13.00,2013-09-20 08:48:00,
2013-09-20 04:53:00,66.8,59.4,30.08,NE,36,0.0,5.0,77,0.00,,---,0.00,VWS V13.00,2013-09-20 08:53:00,
2013-09-20 04:58:00,66.6,59.2,30.08,NE,36,0.0,5.0,77,0.00,,---,0.00,VWS V13.00,2013-09-20 08:58:00,
2013-09-20 05:03:00,66.5,59.1,30.08,NE,36,1.0,1.0,77,0.00,,---,0.00,VWS V13.00,2013-09-20 09:03:00,
2013-09-20 05:08:00,66.3,58.9,30.08,NE,38,0.0,3.0,77,0.00,,---,0.00,VWS V13.00,2013-09-20 09:08:00,
2013-09-20 05:13:00,66.2,58.8,30.08,NE,38,1.0,4.0,77,0.00,,---,0.00,VWS V13.00,2013-09-20 09:13:00,
2013-09-20 05:18:00,66.0,58.6,30.08,NE,41,0.0,4.0,77,0.00,,---,0.00,VWS V13.00,2013-09-20 09:18:00,
2013-09-20 05:23:00,65.9,58.5,30.08,NE,56,1.0,4.0,77,0.00,,---,0.00,VWS V13.00,2013-09-20 09:23:00,
2013-09-20 05:28:00,65.8,58.4,30.07,ENE,63,1.0,4.0,77,0.00,,---,0.00,VWS V13.00,2013-09-20 09:28:00,
2013-09-20 05:33:00,65.9,58.5,30.08,ENE,68,1.0,3.0,77,0.00,,---,0.00,VWS V13.00,2013-09-20 09:33:00,
2013-09-20 05:38:00,65.9,58.5,30.08,ENE,60,0.0,4.0,77,0.00,,---,0.00,VWS V13.00,2013-09-20 09:38:00,
2013-09-20 05:43:00,65.9,58.5,30.08,NE,41,0.0,4.0,77,0.00,,---,0.00,VWS V13.00,2013-09-20 09:43:00,
2013-09-20 05:48:00,65.8,58.4,30.08,NNE,28,1.0,4.0,77,0.00,,---,0.00,VWS V13.00,2013-09-20 09:48:00,
2013-09-20 05:53:00,65.8,58.8,30.08,NNE,28,0.0,4.0,78,0.00,,---,0.00,VWS V13.00,2013-09-20 09:53:00,
2013-09-20 05:58:00,65.7,58.7,30.08,NNE,28,0.0,4.0,78,0.00,,---,0.00,VWS V13.00,2013-09-20 09:58:00,
2013-09-20 06:03:00,65.7,58.7,30.09,North,5,1.0,4.0,78,0.00,,---,0.00,VWS V13.00,2013-09-20 10:03:00,
2013-09-20 06:08:00,65.6,58.6,30.09,NNE,13,1.0,4.0,78,0.00,,---,0.00,VWS V13.00,2013-09-20 10:08:00,
2013-09-20 06:13:00,65.6,58.6,30.09,NNE,26,0.0,4.0,78,0.00,,---,0.00,VWS V13.00,2013-09-20 10:13:00,
2013-09-20 06:18:00,65.6,58.6,30.09,North,360,0.0,4.0,78,0.00,,---,0.00,VWS V13.00,2013-09-20 10:18:00,
2013-09-20 06:23:00,65.6,58.6,30.09,North,11,3.0,4.0,78,0.00,,---,0.00,VWS V13.00,2013-09-20 10:23:00,
2013-09-20 06:28:00,65.4,58.4,30.10,NNE,13,1.0,4.0,78,0.00,,---,0.00,VWS V13.00,2013-09-20 10:28:00,
2013-09-20 06:33:00,65.4,58.4,30.10,NNE,13,0.0,2.0,78,0.00,,---,0.00,VWS V13.00,2013-09-20 10:33:00,
2013-09-20 06:38:00,65.3,58.3,30.10,NNE,13,0.0,2.0,78,0.00,,---,0.00,VWS V13.00,2013-09-20 10:38:00,
2013-09-20 06:43:00,65.2,58.2,30.10,NNE,13,0.0,2.0,78,0.00,,---,0.00,VWS V13.00,2013-09-20 10:43:00,
2013-09-20 06:48:00,65.0,58.0,30.10,NNE,17,0.0,3.0,78,0.00,,---,0.00,VWS V13.00,2013-09-20 10:48:00,
2013-09-20 06:53:00,64.9,57.9,30.10,NNE,22,1.0,4.0,78,0.00,,---,0.00,VWS V13.00,2013-09-20 10:53:00,
2013-09-20 06:58:00,64.9,57.9,30.09,NNE,22,0.0,4.0,78,0.00,,---,0.00,VWS V13.00,2013-09-20 10:58:00,
2013-09-20 07:03:00,64.8,57.8,30.10,NNE,22,0.0,2.0,78,0.00,,---,0.00,VWS V13.00,2013-09-20 11:03:00,
2013-09-20 07:08:00,64.7,57.7,30.10,NNE,22,1.0,2.0,78,0.00,,---,0.00,VWS V13.00,2013-09-20 11:08:00,
2013-09-20 07:13:00,64.6,57.6,30.10,NNE,22,0.0,2.0,78,0.00,,---,0.00,VWS V13.00,2013-09-20 11:13:00,
2013-09-20 07:18:00,64.6,57.6,30.10,NNE,26,4.0,4.0,78,0.00,,---,0.00,VWS V13.00,2013-09-20 11:18:00,
2013-09-20 07:23:00,64.6,57.6,30.10,NNE,15,2.0,4.0,78,0.00,,---,0.00,VWS V13.00,2013-09-20 11:23:00,
2013-09-20 07:28:00,64.8,57.8,30.10,NNE,14,0.0,4.0,78,0.00,,---,0.00,VWS V13.00,2013-09-20 11:28:00,
2013-09-20 07:33:00,64.8,57.8,30.10,NNE,15,0.0,1.0,78,0.00,,---,0.00,VWS V13.00,2013-09-20 11:33:00,
2013-09-20 07:38:00,64.9,57.9,30.10,NE,43,0.0,3.0,78,0.00,,---,0.00,VWS V13.00,2013-09-20 11:38:00,
2013-09-20 07:43:00,65.0,58.3,30.09,NE,43,0.0,3.0,79,0.00,,---,0.00,VWS V13.00,2013-09-20 11:43:00,
2013-09-20 07:48:00,65.3,58.6,30.09,NE,38,0.0,3.0,79,0.00,,---,0.00,VWS V13.00,2013-09-20 11:48:00,
2013-09-20 07:53:00,65.6,58.9,30.09,NE,34,0.0,3.0,79,0.00,,---,0.00,VWS V13.00,2013-09-20 11:53:00,
2013-09-20 07:58:00,66.1,59.4,30.09,NE,56,0.0,5.0,79,0.00,,---,0.00,VWS V13.00,2013-09-20 11:58:00,
2013-09-20 08:03:00,66.4,59.7,30.10,NE,50,0.0,4.0,79,0.00,,---,0.00,VWS V13.00,2013-09-20 12:03:00,
2013-09-20 08:08:00,66.8,60.1,30.10,NNE,20,1.0,4.0,79,0.00,,---,0.00,VWS V13.00,2013-09-20 12:08:00,
2013-09-20 08:13:00,67.1,60.4,30.10,NNE,21,3.0,5.0,79,0.00,,---,0.00,VWS V13.00,2013-09-20 12:13:00,
2013-09-20 08:18:00,67.4,60.7,30.10,ENE,68,2.0,5.0,79,0.00,,---,0.00,VWS V13.00,2013-09-20 12:18:00,
2013-09-20 08:23:00,67.8,61.1,30.10,NE,54,0.0,5.0,79,0.00,,---,0.00,VWS V13.00,2013-09-20 12:23:00,
2013-09-20 08:28:00,68.0,61.2,30.10,East,82,0.0,5.0,79,0.00,,---,0.00,VWS V13.00,2013-09-20 12:28:00,
2013-09-20 08:34:00,68.3,61.5,30.10,NNE,30,2.0,4.0,79,0.00,,---,0.00,VWS V13.00,2013-09-20 12:34:00,
2013-09-20 08:39:00,68.6,61.8,30.10,NNE,26,5.0,6.0,79,0.00,,---,0.00,VWS V13.00,2013-09-20 12:39:00,
2013-09-20 08:44:00,69.0,62.2,30.10,NE,34,0.0,6.0,79,0.00,,---,0.00,VWS V13.00,2013-09-20 12:44:00,
2013-09-20 08:49:00,69.3,62.2,30.10,ENE,73,6.0,7.0,78,0.00,,---,0.00,VWS V13.00,2013-09-20 12:49:00,
2013-09-20 08:54:00,69.6,62.8,30.09,ENE,75,3.0,8.0,79,0.00,,---,0.00,VWS V13.00,2013-09-20 12:54:00,
2013-09-20 08:59:00,69.9,62.7,30.09,ENE,72,3.0,8.0,78,0.00,,---,0.00,VWS V13.00,2013-09-20 12:59:00,
2013-09-20 09:04:00,70.1,62.9,30.10,ENE,64,4.0,6.0,78,0.00,,---,0.00,VWS V13.00,2013-09-20 13:04:00,
2013-09-20 09:09:00,70.3,63.1,30.09,ESE,105,1.0,6.0,78,0.00,,---,0.00,VWS V13.00,2013-09-20 13:09:00,
2013-09-20 09:14:00,70.5,63.3,30.10,NNE,33,5.0,10.0,78,0.00,,---,0.00,VWS V13.00,2013-09-20 13:14:00,
2013-09-20 09:19:00,70.7,63.5,30.10,ENE,57,3.0,10.0,78,0.00,,---,0.00,VWS V13.00,2013-09-20 13:19:00,
2013-09-20 09:24:00,71.0,63.8,30.10,East,92,0.0,10.0,78,0.00,,---,0.00,VWS V13.00,2013-09-20 13:24:00,
2013-09-20 09:29:00,71.3,64.1,30.10,East,88,5.0,10.0,78,0.00,,---,0.00,VWS V13.00,2013-09-20 13:29:00,
2013-09-20 09:34:00,71.3,64.1,30.10,ENE,66,5.0,8.0,78,0.00,,---,0.00,VWS V13.00,2013-09-20 13:34:00,
2013-09-20 09:39:00,71.7,64.5,30.10,East,86,3.0,10.0,78,0.00,,---,0.00,VWS V13.00,2013-09-20 13:39:00,
2013-09-20 09:44:00,72.0,64.8,30.10,ENE,59,1.0,10.0,78,0.00,,---,0.00,VWS V13.00,2013-09-20 13:44:00,
2013-09-20 09:49:00,72.2,64.6,30.11,NE,34,3.0,10.0,77,0.00,,---,0.00,VWS V13.00,2013-09-20 13:49:00,
2013-09-20 09:54:00,72.2,64.6,30.11,ENE,58,6.0,10.0,77,0.00,,---,0.00,VWS V13.00,2013-09-20 13:54:00,
2013-09-20 09:59:00,72.2,64.6,30.11,ENE,68,4.0,10.0,77,0.00,,---,0.00,VWS V13.00,2013-09-20 13:59:00,
2013-09-20 10:04:00,72.3,64.7,30.11,ENE,65,1.0,6.0,77,0.00,,---,0.00,VWS V13.00,2013-09-20 14:04:00,
2013-09-20 10:09:00,72.5,64.9,30.11,ENE,57,1.0,8.0,77,0.00,,---,0.00,VWS V13.00,2013-09-20 14:09:00,
2013-09-20 10:14:00,72.8,65.2,30.11,East,82,7.0,8.0,77,0.00,,---,0.00,VWS V13.00,2013-09-20 14:14:00,
2013-09-20 10:20:00,73.1,65.1,30.11,East,98,5.0,8.0,76,0.00,,---,0.00,VWS V13.00,2013-09-20 14:20:00,
2013-09-20 10:25:00,73.1,65.1,30.11,ENE,77,6.0,8.0,76,0.00,,---,0.00,VWS V13.00,2013-09-20 14:25:00,
2013-09-20 10:30:00,73.1,65.1,30.11,NE,53,2.0,8.0,76,0.00,,---,0.00,VWS V13.00,2013-09-20 14:30:00,
2013-09-20 10:35:00,73.4,65.4,30.11,East,81,0.0,6.0,76,0.00,,---,0.00,VWS V13.00,2013-09-20 14:35:00,
2013-09-20 10:40:00,74.1,66.1,30.11,NNE,15,0.0,6.0,76,0.00,,---,0.00,VWS V13.00,2013-09-20 14:40:00,
2013-09-20 10:45:00,74.5,66.1,30.11,NE,55,0.0,7.0,75,0.00,,---,0.00,VWS V13.00,2013-09-20 14:45:00,
2013-09-20 10:50:00,75.0,66.6,30.10,ENE,64,3.0,7.0,75,0.00,,---,0.00,VWS V13.00,2013-09-20 14:50:00,
2013-09-20 10:55:00,75.4,66.9,30.10,NE,55,2.0,7.0,75,0.00,,---,0.00,VWS V13.00,2013-09-20 14:55:00,
2013-09-20 11:00:00,75.8,66.9,30.10,ENE,77,4.0,7.0,74,0.00,,---,0.00,VWS V13.00,2013-09-20 15:00:00,
2013-09-20 11:05:00,75.9,67.0,30.10,ESE,109,6.0,7.0,74,0.00,,---,0.00,VWS V13.00,2013-09-20 15:05:00,
2013-09-20 11:10:00,75.9,67.0,30.10,East,84,2.0,7.0,74,0.00,,---,0.00,VWS V13.00,2013-09-20 15:10:00,
2013-09-20 11:15:00,75.9,66.6,30.10,NE,49,1.0,7.0,73,0.00,,---,0.00,VWS V13.00,2013-09-20 15:15:00,
2013-09-20 11:20:00,75.7,66.4,30.10,ENE,57,1.0,7.0,73,0.00,,---,0.00,VWS V13.00,2013-09-20 15:20:00,
2013-09-20 11:25:00,75.7,66.4,30.10,East,84,0.0,7.0,73,0.00,,---,0.00,VWS V13.00,2013-09-20 15:25:00,
2013-09-20 11:30:00,75.7,66.4,30.10,SE,127,6.0,8.0,73,0.00,,---,0.00,VWS V13.00,2013-09-20 15:30:00,
2013-09-20 11:35:00,76.2,66.9,30.09,SE,128,6.0,7.0,73,0.00,,---,0.00,VWS V13.00,2013-09-20 15:35:00,
2013-09-20 11:40:00,76.4,66.7,30.09,SE,132,5.0,7.0,72,0.00,,---,0.00,VWS V13.00,2013-09-20 15:40:00,
2013-09-20 11:45:00,76.4,66.7,30.09,SE,124,7.0,9.0,72,0.00,,---,0.00,VWS V13.00,2013-09-20 15:45:00,
2013-09-20 11:50:00,76.3,66.6,30.09,ESE,110,6.0,9.0,72,0.00,,---,0.00,VWS V13.00,2013-09-20 15:50:00,
2013-09-20 11:55:00,76.2,66.1,30.09,ESE,116,2.0,9.0,71,0.00,,---,0.00,VWS V13.00,2013-09-20 15:55:00,
2013-09-20 12:00:00,76.1,66.0,30.09,SE,132,6.0,9.0,71,0.00,,---,0.00,VWS V13.00,2013-09-20 16:00:00,
2013-09-20 12:05:00,76.3,66.2,30.09,SE,145,5.0,6.0,71,0.00,,---,0.00,VWS V13.00,2013-09-20 16:05:00,
2013-09-20 12:10:00,76.8,66.7,30.09,SSE,161,5.0,8.0,71,0.00,,---,0.00,VWS V13.00,2013-09-20 16:10:00,
2013-09-20 12:15:00,77.1,67.0,30.09,SSE,166,1.0,8.0,71,0.00,,---,0.00,VWS V13.00,2013-09-20 16:15:00,
2013-09-20 12:20:00,77.7,67.6,30.09,South,178,4.0,8.0,71,0.00,,---,0.00,VWS V13.00,2013-09-20 16:20:00,
2013-09-20 12:25:00,78.3,68.1,30.08,SSW,207,0.0,8.0,71,0.00,,---,0.00,VWS V13.00,2013-09-20 16:25:00,
2013-09-20 12:30:00,78.9,68.3,30.08,SE,124,6.0,8.0,70,0.00,,---,0.00,VWS V13.00,2013-09-20 16:30:00,
2013-09-20 12:35:00,79.3,68.7,30.08,SE,136,5.0,6.0,70,0.00,,---,0.00,VWS V13.00,2013-09-20 16:35:00,
2013-09-20 12:40:00,79.0,68.0,30.08,ESE,117,5.0,7.0,69,0.00,,---,0.00,VWS V13.00,2013-09-20 16:40:00,
2013-09-20 12:45:00,78.7,67.7,30.07,ESE,109,2.0,7.0,69,0.00,,---,0.00,VWS V13.00,2013-09-20 16:45:00,
2013-09-20 12:50:00,78.9,68.3,30.07,ESE,115,6.0,7.0,70,0.00,,---,0.00,VWS V13.00,2013-09-20 16:50:00,
2013-09-20 12:55:00,79.3,68.3,30.07,SSE,151,2.0,7.0,69,0.00,,---,0.00,VWS V13.00,2013-09-20 16:55:00,
2013-09-20 13:00:00,79.6,68.5,30.07,SSE,149,2.0,7.0,69,0.00,,---,0.00,VWS V13.00,2013-09-20 17:00:00,
2013-09-20 13:05:00,80.0,68.9,30.07,South,188,6.0,6.0,69,0.00,,---,0.00,VWS V13.00,2013-09-20 17:05:00,
2013-09-20 13:10:00,80.1,68.6,30.07,South,171,6.0,7.0,68,0.00,,---,0.00,VWS V13.00,2013-09-20 17:10:00,
2013-09-20 13:15:00,79.8,68.3,30.07,SW,228,3.0,8.0,68,0.00,,---,0.00,VWS V13.00,2013-09-20 17:15:00,
2013-09-20 13:20:00,79.5,68.0,30.07,SW,234,3.0,8.0,68,0.00,,---,0.00,VWS V13.00,2013-09-20 17:20:00,
2013-09-20 13:25:00,79.2,67.7,30.06,South,177,5.0,9.0,68,0.00,,---,0.00,VWS V13.00,2013-09-20 17:25:00,
2013-09-20 13:30:00,78.8,67.4,30.06,South,184,3.0,9.0,68,0.00,,---,0.00,VWS V13.00,2013-09-20 17:30:00,
2013-09-20 13:35:00,78.7,67.3,30.06,South,184,2.0,7.0,68,0.00,,---,0.00,VWS V13.00,2013-09-20 17:35:00,
2013-09-20 13:40:00,78.5,67.1,30.06,SSW,208,3.0,7.0,68,0.00,,---,0.00,VWS V13.00,2013-09-20 17:40:00,
2013-09-20 13:45:00,78.4,67.0,30.06,SSW,211,4.0,7.0,68,0.00,,---,0.00,VWS V13.00,2013-09-20 17:45:00,
2013-09-20 13:50:00,78.4,67.0,30.06,South,175,4.0,7.0,68,0.00,,---,0.00,VWS V13.00,2013-09-20 17:50:00,
2013-09-20 13:55:00,78.1,66.3,30.06,SSW,198,4.0,7.0,67,0.00,,---,0.00,VWS V13.00,2013-09-20 17:55:00,
2013-09-20 14:00:00,77.8,66.4,30.05,SSW,213,5.0,7.0,68,0.00,,---,0.00,VWS V13.00,2013-09-20 18:00:00,
2013-09-20 14:05:00,77.7,66.3,30.05,South,173,5.0,6.0,68,0.00,,---,0.00,VWS V13.00,2013-09-20 18:05:00,
2013-09-20 14:10:00,77.6,66.2,30.05,WSW,242,3.0,6.0,68,0.00,,---,0.00,VWS V13.00,2013-09-20 18:10:00,
2013-09-20 14:15:00,77.7,65.9,30.05,South,186,3.0,6.0,67,0.00,,---,0.00,VWS V13.00,2013-09-20 18:15:00,
2013-09-20 14:20:00,77.7,65.9,30.05,SSE,167,1.0,6.0,67,0.00,,---,0.00,VWS V13.00,2013-09-20 18:20:00,
2013-09-20 14:25:00,77.6,65.8,30.05,South,188,2.0,6.0,67,0.00,,---,0.00,VWS V13.00,2013-09-20 18:25:00,
2013-09-20 14:30:00,77.5,65.7,30.05,SW,218,3.0,6.0,67,0.00,,---,0.00,VWS V13.00,2013-09-20 18:30:00,
2013-09-20 14:35:00,77.5,65.7,30.04,SSW,205,2.0,6.0,67,0.00,,---,0.00,VWS V13.00,2013-09-20 18:35:00,
2013-09-20 14:40:00,77.5,65.7,30.04,SSW,198,0.0,6.0,67,0.00,,---,0.00,VWS V13.00,2013-09-20 18:40:00,
2013-09-20 14:45:00,77.6,65.8,30.04,WSW,238,3.0,6.0,67,0.00,,---,0.00,VWS V13.00,2013-09-20 18:45:00,
2013-09-20 14:50:00,77.6,65.8,30.04,SSW,196,3.0,7.0,67,0.00,,---,0.00,VWS V13.00,2013-09-20 18:50:00,
2013-09-20 14:55:00,77.6,65.8,30.04,SW,225,4.0,7.0,67,0.00,,---,0.00,VWS V13.00,2013-09-20 18:55:00,
2013-09-20 15:00:00,77.5,65.7,30.04,SW,222,5.0,7.0,67,0.00,,---,0.00,VWS V13.00,2013-09-20 19:00:00,
2013-09-20 15:05:00,77.4,65.6,30.04,SW,220,4.0,6.0,67,0.00,,---,0.00,VWS V13.00,2013-09-20 19:05:00,
2013-09-20 15:10:00,77.1,65.3,30.03,SSW,194,3.0,8.0,67,0.00,,---,0.00,VWS V13.00,2013-09-20 19:10:00,
2013-09-20 15:15:00,76.9,65.1,30.03,SW,234,1.0,9.0,67,0.00,,---,0.00,VWS V13.00,2013-09-20 19:15:00,
2013-09-20 15:20:00,76.9,65.1,30.03,SW,232,4.0,9.0,67,0.00,,---,0.00,VWS V13.00,2013-09-20 19:20:00,
2013-09-20 15:25:00,76.9,65.1,30.03,WSW,244,2.0,9.0,67,0.00,,---,0.00,VWS V13.00,2013-09-20 19:25:00,
2013-09-20 15:30:00,77.1,65.3,30.03,WSW,247,5.0,9.0,67,0.00,,---,0.00,VWS V13.00,2013-09-20 19:30:00,
2013-09-20 15:35:00,77.1,65.3,30.03,SSW,194,3.0,6.0,67,0.00,,---,0.00,VWS V13.00,2013-09-20 19:35:00,
2013-09-20 15:40:00,77.2,65.4,30.03,SW,226,2.0,6.0,67,0.00,,---,0.00,VWS V13.00,2013-09-20 19:40:00,
2013-09-20 15:45:00,77.4,66.0,30.02,West,271,3.0,6.0,68,0.00,,---,0.00,VWS V13.00,2013-09-20 19:45:00,
2013-09-20 15:50:00,77.4,65.6,30.02,WNW,282,2.0,6.0,67,0.00,,---,0.00,VWS V13.00,2013-09-20 19:50:00,
2013-09-20 15:55:00,77.4,65.6,30.02,West,279,3.0,6.0,67,0.00,,---,0.00,VWS V13.00,2013-09-20 19:55:00,
2013-09-20 16:01:00,77.3,65.5,30.02,NW,304,0.0,7.0,67,0.00,,---,0.00,VWS V13.00,2013-09-20 20:01:00,
2013-09-20 16:06:00,77.3,65.9,30.02,NW,308,5.0,5.0,68,0.00,,---,0.00,VWS V13.00,2013-09-20 20:06:00,
2013-09-20 16:11:00,77.5,66.1,30.02,West,272,6.0,7.0,68,0.00,,---,0.00,VWS V13.00,2013-09-20 20:11:00,
2013-09-20 16:16:00,77.6,66.2,30.02,NW,313,4.0,9.0,68,0.00,,---,0.00,VWS V13.00,2013-09-20 20:16:00,
2013-09-20 16:21:00,77.4,66.0,30.02,NW,317,3.0,10.0,68,0.00,,---,0.00,VWS V13.00,2013-09-20 20:21:00,
2013-09-20 16:26:00,77.1,66.2,30.02,West,277,3.0,10.0,69,0.00,,---,0.00,VWS V13.00,2013-09-20 20:26:00,
2013-09-20 16:31:00,76.9,66.0,30.01,WNW,294,1.0,10.0,69,0.00,,---,0.00,VWS V13.00,2013-09-20 20:31:00,
2013-09-20 16:36:00,76.7,65.8,30.02,NW,315,5.0,6.0,69,0.00,,---,0.00,VWS V13.00,2013-09-20 20:36:00,
2013-09-20 16:41:00,76.7,65.8,30.01,WNW,294,3.0,6.0,69,0.00,,---,0.00,VWS V13.00,2013-09-20 20:41:00,
2013-09-20 16:46:00,76.7,65.8,30.02,NNW,340,0.0,6.0,69,0.00,,---,0.00,VWS V13.00,2013-09-20 20:46:00,
2013-09-20 16:51:00,76.6,65.7,30.01,NW,320,2.0,7.0,69,0.00,,---,0.00,VWS V13.00,2013-09-20 20:51:00,
2013-09-20 16:56:00,76.6,66.1,30.01,NNW,340,2.0,7.0,70,0.00,,---,0.00,VWS V13.00,2013-09-20 20:56:00,
2013-09-20 17:01:00,76.6,65.7,30.01,NW,313,3.0,3.0,69,0.00,,---,0.00,VWS V13.00,2013-09-20 21:01:00,
2013-09-20 17:06:00,76.5,65.6,30.01,NW,308,2.0,6.0,69,0.00,,---,0.00,VWS V13.00,2013-09-20 21:06:00,
2013-09-20 17:11:00,76.4,65.9,30.01,NNW,331,2.0,6.0,70,0.00,,---,0.00,VWS V13.00,2013-09-20 21:11:00,
2013-09-20 17:16:00,76.3,65.8,30.02,NW,319,1.0,7.0,70,0.00,,---,0.00,VWS V13.00,2013-09-20 21:16:00,
2013-09-20 17:21:00,76.2,65.7,30.01,NNW,338,4.0,7.0,70,0.00,,---,0.00,VWS V13.00,2013-09-20 21:21:00,
2013-09-20 17:26:00,76.2,65.7,30.01,North,355,2.0,7.0,70,0.00,,---,0.00,VWS V13.00,2013-09-20 21:26:00,
2013-09-20 17:31:00,76.2,65.7,30.01,NE,38,4.0,4.0,70,0.00,,---,0.00,VWS V13.00,2013-09-20 21:31:00,
2013-09-20 17:36:00,76.0,65.5,30.01,NNW,332,0.0,5.0,70,0.00,,---,0.00,VWS V13.00,2013-09-20 21:36:00,
2013-09-20 17:41:00,75.9,65.4,30.01,NW,313,3.0,6.0,70,0.00,,---,0.00,VWS V13.00,2013-09-20 21:41:00,
2013-09-20 17:46:00,75.8,65.3,30.01,NW,317,0.0,6.0,70,0.00,,---,0.00,VWS V13.00,2013-09-20 21:46:00,
2013-09-20 17:51:00,75.7,65.2,30.01,WNW,302,0.0,6.0,70,0.00,,---,0.00,VWS V13.00,2013-09-20 21:51:00,
2013-09-20 17:56:00,75.7,65.2,30.01,NNW,341,2.0,6.0,70,0.00,,---,0.00,VWS V13.00,2013-09-20 21:56:00,
2013-09-20 18:01:00,75.5,65.0,30.00,NNW,328,0.0,0.0,70,0.00,,---,0.00,VWS V13.00,2013-09-20 22:01:00,
2013-09-20 18:06:00,75.4,65.3,30.00,NW,324,2.0,3.0,71,0.00,,---,0.00,VWS V13.00,2013-09-20 22:06:00,
2013-09-20 18:11:00,75.2,65.2,30.00,NNW,348,1.0,3.0,71,0.00,,---,0.00,VWS V13.00,2013-09-20 22:11:00,
2013-09-20 18:16:00,75.0,65.0,30.00,North,351,0.0,3.0,71,0.00,,---,0.00,VWS V13.00,2013-09-20 22:16:00,
2013-09-20 18:21:00,74.8,64.8,30.00,NNW,336,2.0,4.0,71,0.00,,---,0.00,VWS V13.00,2013-09-20 22:21:00,
2013-09-20 18:26:00,74.7,64.7,30.00,WNW,300,1.0,4.0,71,0.00,,---,0.00,VWS V13.00,2013-09-20 22:26:00,
2013-09-20 18:31:00,74.5,64.5,30.00,NNW,337,0.0,4.0,71,0.00,,---,0.00,VWS V13.00,2013-09-20 22:31:00,
2013-09-20 18:36:00,74.4,64.4,30.00,NNW,337,0.0,4.0,71,0.00,,---,0.00,VWS V13.00,2013-09-20 22:36:00,
2013-09-20 18:41:00,74.2,64.2,30.00,NNW,334,0.0,4.0,71,0.00,,---,0.00,VWS V13.00,2013-09-20 22:41:00,
2013-09-20 18:46:00,74.1,64.1,30.00,NNW,334,0.0,4.0,71,0.00,,---,0.00,VWS V13.00,2013-09-20 22:46:00,
2013-09-20 18:51:00,74.0,64.0,30.00,NW,321,2.0,4.0,71,0.00,,---,0.00,VWS V13.00,2013-09-20 22:51:00,
2013-09-20 18:56:00,73.9,63.9,30.00,NNW,327,3.0,4.0,71,0.00,,---,0.00,VWS V13.00,2013-09-20 22:56:00,
2013-09-20 19:01:00,73.7,63.7,30.00,NNW,332,0.0,4.0,71,0.00,,---,0.00,VWS V13.00,2013-09-20 23:01:00,
2013-09-20 19:06:00,73.5,63.5,30.00,NNW,327,1.0,3.0,71,0.00,,---,0.00,VWS V13.00,2013-09-20 23:06:00,
2013-09-20 19:11:00,73.3,63.7,30.00,NNW,333,0.0,3.0,72,0.00,,---,0.00,VWS V13.00,2013-09-20 23:11:00,
2013-09-20 19:16:00,73.0,63.0,30.00,NNW,333,0.0,3.0,71,0.00,,---,0.00,VWS V13.00,2013-09-20 23:16:00,
2013-09-20 19:21:00,72.8,63.3,30.00,NNW,333,0.0,3.0,72,0.00,,---,0.00,VWS V13.00,2013-09-20 23:21:00,
2013-09-20 19:26:00,72.5,63.0,30.00,NNW,333,0.0,3.0,72,0.00,,---,0.00,VWS V13.00,2013-09-20 23:26:00,
2013-09-20 19:31:00,72.3,62.8,30.00,NNW,333,0.0,3.0,72,0.00,,---,0.00,VWS V13.00,2013-09-20 23:31:00,
2013-09-20 19:36:00,72.0,62.5,30.00,NNW,333,0.0,0.0,72,0.00,,---,0.00,VWS V13.00,2013-09-20 23:36:00,
2013-09-20 19:41:00,71.8,62.3,30.00,NNW,333,1.0,1.0,72,0.00,,---,0.00,VWS V13.00,2013-09-20 23:41:00,
2013-09-20 19:46:00,71.6,62.1,30.00,NNW,333,0.0,3.0,72,0.00,,---,0.00,VWS V13.00,2013-09-20 23:46:00,
2013-09-20 19:51:00,71.5,62.0,30.00,NNW,333,2.0,3.0,72,0.00,,---,0.00,VWS V13.00,2013-09-20 23:51:00,
2013-09-20 19:56:00,71.3,61.8,30.00,NNW,334,0.0,3.0,72,0.00,,---,0.00,VWS V13.00,2013-09-20 23:56:00,
2013-09-20 20:01:00,71.3,61.8,30.01,NNW,344,1.0,1.0,72,0.00,,---,0.00,VWS V13.00,2013-09-21 00:01:00,
2013-09-20 20:06:00,71.2,61.7,30.01,NNW,344,0.0,3.0,72,0.00,,---,0.00,VWS V13.00,2013-09-21 00:06:00,
2013-09-20 20:11:00,71.2,62.1,30.01,North,5,2.0,4.0,73,0.00,,---,0.00,VWS V13.00,2013-09-21 00:11:00,
2013-09-20 20:16:00,71.2,62.1,30.01,North,5,0.0,4.0,73,0.00,,---,0.00,VWS V13.00,2013-09-21 00:16:00,
2013-09-20 20:21:00,71.2,62.1,30.01,North,9,0.0,4.0,73,0.00,,---,0.00,VWS V13.00,2013-09-21 00:21:00,
2013-09-20 20:26:00,71.3,62.2,30.01,North,9,0.0,4.0,73,0.00,,---,0.00,VWS V13.00,2013-09-21 00:26:00,
2013-09-20 20:31:00,71.2,62.1,30.01,North,9,0.0,0.0,73,0.00,,---,0.00,VWS V13.00,2013-09-21 00:31:00,
2013-09-20 20:36:00,71.1,62.0,30.01,North,5,0.0,0.0,73,0.00,,---,0.00,VWS V13.00,2013-09-21 00:36:00,
2013-09-20 20:41:00,71.1,62.0,30.01,ESE,103,0.0,2.0,73,0.00,,---,0.00,VWS V13.00,2013-09-21 00:41:00,
2013-09-20 20:46:00,71.0,61.9,30.01,ESE,106,4.0,7.0,73,0.00,,---,0.00,VWS V13.00,2013-09-21 00:46:00,
2013-09-20 20:51:00,71.0,62.3,30.01,ESE,112,7.0,7.0,74,0.00,,---,0.00,VWS V13.00,2013-09-21 00:51:00,
2013-09-20 20:56:00,71.1,62.0,30.01,ESE,104,4.0,7.0,73,0.00,,---,0.00,VWS V13.00,2013-09-21 00:56:00,
2013-09-20 21:01:00,71.3,62.2,30.01,East,90,2.0,4.0,73,0.00,,---,0.00,VWS V13.00,2013-09-21 01:01:00,
2013-09-20 21:06:00,71.6,62.5,30.01,East,90,2.0,7.0,73,0.00,,---,0.00,VWS V13.00,2013-09-21 01:06:00,
2013-09-20 21:11:00,71.7,62.6,30.01,ESE,116,7.0,8.0,73,0.00,,---,0.00,VWS V13.00,2013-09-21 01:11:00,
2013-09-20 21:16:00,71.8,62.7,30.01,ESE,115,6.0,8.0,73,0.00,,---,0.00,VWS V13.00,2013-09-21 01:16:00,
2013-09-20 21:21:00,72.1,63.0,30.01,East,95,2.0,8.0,73,0.00,,---,0.00,VWS V13.00,2013-09-21 01:21:00,
2013-09-20 21:26:00,72.2,63.1,30.01,ENE,66,4.0,8.0,73,0.00,,---,0.00,VWS V13.00,2013-09-21 01:26:00,
2013-09-20 21:31:00,72.3,63.2,30.01,ENE,71,2.0,5.0,73,0.00,,---,0.00,VWS V13.00,2013-09-21 01:31:00,
2013-09-20 21:37:00,72.3,63.2,30.01,East,84,4.0,9.0,73,0.00,,---,0.00,VWS V13.00,2013-09-21 01:37:00,
2013-09-20 21:42:00,72.4,62.9,30.01,ESE,105,4.0,12.0,72,0.00,,---,0.00,VWS V13.00,2013-09-21 01:42:00,
2013-09-20 21:47:00,72.5,63.0,30.01,East,96,4.0,12.0,72,0.00,,---,0.00,VWS V13.00,2013-09-21 01:47:00,
2013-09-20 21:52:00,72.5,63.0,30.01,East,84,0.0,12.0,72,0.00,,---,0.00,VWS V13.00,2013-09-21 01:52:00,
2013-09-20 21:57:00,72.4,62.9,30.01,ENE,77,0.0,12.0,72,0.00,,---,0.00,VWS V13.00,2013-09-21 01:57:00,
2013-09-20 22:02:00,72.2,62.7,30.01,ENE,77,0.0,0.0,72,0.00,,---,0.00,VWS V13.00,2013-09-21 02:02:00,
2013-09-20 22:07:00,71.9,62.4,30.01,ENE,77,0.0,0.0,72,0.00,,---,0.00,VWS V13.00,2013-09-21 02:07:00,
2013-09-20 22:12:00,71.5,62.0,30.01,ENE,67,1.0,3.0,72,0.00,,---,0.00,VWS V13.00,2013-09-21 02:12:00,
2013-09-20 22:17:00,71.1,61.6,30.01,ENE,62,0.0,3.0,72,0.00,,---,0.00,VWS V13.00,2013-09-21 02:17:00,
2013-09-20 22:22:00,70.8,61.7,30.01,ENE,62,0.0,3.0,73,0.00,,---,0.00,VWS V13.00,2013-09-21 02:22:00,
2013-09-20 22:27:00,70.5,61.4,30.01,ENE,62,0.0,3.0,73,0.00,,---,0.00,VWS V13.00,2013-09-21 02:27:00,
2013-09-20 22:32:00,70.3,61.2,30.01,ENE,62,0.0,1.0,73,0.00,,---,0.00,VWS V13.00,2013-09-21 02:32:00,
2013-09-20 22:37:00,70.2,61.2,30.00,ENE,61,0.0,3.0,73,0.00,,---,0.00,VWS V13.00,2013-09-21 02:37:00,
2013-09-20 22:42:00,70.1,61.0,30.00,ENE,61,0.0,3.0,73,0.00,,---,0.00,VWS V13.00,2013-09-21 02:42:00,
2013-09-20 22:47:00,70.0,61.3,30.00,NE,53,0.0,4.0,74,0.00,,---,0.00,VWS V13.00,2013-09-21 02:47:00,
2013-09-20 22:52:00,69.9,61.2,30.00,NE,53,0.0,4.0,74,0.00,,---,0.00,VWS V13.00,2013-09-21 02:52:00,
2013-09-20 22:57:00,69.7,61.0,30.00,NE,35,0.0,4.0,74,0.00,,---,0.00,VWS V13.00,2013-09-21 02:57:00,
2013-09-20 23:02:00,69.5,60.9,30.00,NE,35,0.0,1.0,74,0.00,,---,0.00,VWS V13.00,2013-09-21 03:02:00,
2013-09-20 23:07:00,69.3,60.7,30.00,NE,35,1.0,3.0,74,0.00,,---,0.00,VWS V13.00,2013-09-21 03:07:00,
2013-09-20 23:12:00,69.2,60.6,30.00,NNE,18,2.0,4.0,74,0.00,,---,0.00,VWS V13.00,2013-09-21 03:12:00,
2013-09-20 23:17:00,69.0,60.4,30.00,NNE,18,1.0,4.0,74,0.00,,---,0.00,VWS V13.00,2013-09-21 03:17:00,
2013-09-20 23:22:00,68.9,60.3,30.00,NNE,18,0.0,4.0,74,0.00,,---,0.00,VWS V13.00,2013-09-21 03:22:00,
2013-09-20 23:27:00,68.8,60.6,29.99,NNE,18,0.0,4.0,75,0.00,,---,0.00,VWS V13.00,2013-09-21 03:27:00,
2013-09-20 23:32:00,68.7,60.1,30.00,NNE,22,1.0,3.0,74,0.00,,---,0.00,VWS V13.00,2013-09-21 03:32:00,
2013-09-20 23:37:00,68.6,60.4,30.00,NE,40,2.0,3.0,75,0.00,,---,0.00,VWS V13.00,2013-09-21 03:37:00,
2013-09-20 23:42:00,68.6,60.4,29.99,NE,38,2.0,4.0,75,0.00,,---,0.00,VWS V13.00,2013-09-21 03:42:00,
2013-09-20 23:47:00,68.5,60.3,29.99,North,5,2.0,4.0,75,0.00,,---,0.00,VWS V13.00,2013-09-21 03:47:00,
2013-09-20 23:52:00,68.5,60.3,29.99,NNE,23,1.0,4.0,75,0.00,,---,0.00,VWS V13.00,2013-09-21 03:52:00,
2013-09-20 23:57:00,68.5,60.3,29.99,NNE,23,2.0,4.0,75,0.00,,---,0.00,VWS V13.00,2013-09-21 03:57:00,